Custom file does not exist C:\wdisplay\webfiles\testtags.txt Borgafjälls vädersida - Nearby METAR Reports

Nearby METAR Reports

 

KSJC - San Jose, California, USA
Distance from station: NO 14km
Uppdaterad: 06/08/2020 11:53
Genommulet
Genommulet
 Vind frn S
Vind: S 9 km/h
Temperatur: 17°C
Daggpunkt: 12°C
Luftfuktighet: 73%
Barometer: 1012.9 hPa
Clouds: Genommulet
Visibility: 16 km
Cloud details: Genommulet 701 m
2020/08/06 09:53 KSJC 060953Z AUTO 17005KT 10SM OVC023 17/12 A2991 RMK AO2 SLP127 T01720122
KNUQ - Moffett Nas/Mtn, California, USA
Distance from station: N 14km
Uppdaterad: 06/08/2020 11:55
Genommulet
Genommulet
 Vind frn varies
Vind: varies 7 km/h
Temperatur: 16°C
Daggpunkt: 13°C
Luftfuktighet: 83%
Barometer: 1012.9 hPa
Clouds: Genommulet
Visibility: 16 km
Cloud details: Genommulet 579 m
2020/08/06 09:55 KNUQ 060955Z AUTO VRB04KT 10SM OVC019 16/13 A2991 RMK AO2
 
KPAO - Palo Alto, California, USA
Distance from station: NNV 23km
Uppdaterad: 06/08/2020 03:47
NOT Current
Genommulet
Genommulet
 Vind frn V
Vind: V 20 km/h, Vindby: 33 km/h
Temperatur: 18°C
Daggpunkt: 12°C
Luftfuktighet: 68%
Barometer: 1014.6 hPa
Clouds: Genommulet
Visibility: 16 km
Cloud details: Genommulet 853 m
2020/08/06 01:47 KPAO 060147Z 26011G18KT 10SM OVC028 18/12 A2996
KRHV - San Jose/Reid, California, USA
Distance from station: ONO 19km
Uppdaterad: 06/08/2020 06:50
NOT Current
vervgande molnigt
vervgande molnigt
 Vind frn NV
Vind: NV 9 km/h
Temperatur: 17°C
Daggpunkt: 12°C
Luftfuktighet: 73%
Barometer: 1014.9 hPa
Clouds: vervgande molnigt
Visibility: 13 km
Cloud details: vervgande molnigt 610 m
2020/08/06 04:50 KRHV 060450Z 32005KT 8SM BKN020 17/12 A2997 RMK LAST
 
KOAK - Oakland, California, USA
Distance from station: NNV 50km
Uppdaterad: 06/08/2020 11:53
Genommulet
Genommulet
 Vind frn SV
Vind: SV 19 km/h
Temperatur: 16°C
Daggpunkt: 13°C
Luftfuktighet: 83%
Barometer: 1012.9 hPa
Clouds: Genommulet
Visibility: 14 km
Cloud details: Genommulet 244 m
2020/08/06 09:53 KOAK 060953Z 23010KT 9SM OVC008 16/13 A2991 RMK AO2 SLP127 T01610128
KSQL - San Carlos Airpo, California, USA
Distance from station: NV 34km
Uppdaterad: 06/08/2020 11:55
Genommulet
Genommulet
 Vind frn V
Vind: V 15 km/h
Temperatur: 15°C
Daggpunkt: 13°C
Luftfuktighet: 88%
Barometer: 1013.2 hPa
Clouds: Genommulet
Visibility: 16 km
Cloud details: Genommulet 518 m
2020/08/06 09:55 KSQL 060955Z AUTO 27008KT 10SM OVC017 15/13 A2992 RMK AO2
 
KSFO - San Francisco, California, USA
Distance from station: NV 49km
Uppdaterad: 06/08/2020 11:56
Genommulet
Genommulet
 Vind frn V
Vind: V 13 km/h
Temperatur: 14°C
Daggpunkt: 12°C
Luftfuktighet: 88%
Barometer: 1012.9 hPa
Clouds: Genommulet
Visibility: 14 km
Cloud details: Few Clouds 183 m
vervgande molnigt 244 m
Genommulet 335 m
2020/08/06 09:56 KSFO 060956Z 27007KT 9SM FEW006 BKN008 OVC011 14/12 A2991 RMK AO2 SLP127 T01440117
KE16 - San Martin, California, USA
Distance from station: OSO 43km
Uppdaterad: 06/08/2020 11:50
Genommulet
Genommulet
 Vind frn S
Vind: S 9 km/h
Temperatur: 16°C
Daggpunkt: 12°C
Luftfuktighet: 77%
Barometer: 1014.2 hPa
Clouds: Genommulet
Visibility: 16 km
Cloud details: Genommulet 671 m
2020/08/06 09:50 KE16 060950Z AUTO 19005KT 10SM OVC022 16/12 A2995 RMK AO2 PWINO PNO
 
KWVI - Watsonville, California, USA
Distance from station: SSO 44km
Uppdaterad: 06/08/2020 12:01
Genommulet
Genommulet
 Vind frn SV
Vind: SV 7 km/h
Temperatur: 15°C
Daggpunkt: 14°C
Luftfuktighet: 94%
Barometer: 1013.9 hPa
Clouds: Genommulet
Visibility: 16 km
Cloud details: vervgande molnigt 152 m
Genommulet 640 m
2020/08/06 10:01 KWVI 061001Z AUTO 23004KT 10SM BKN005 OVC021 15/14 A2994 RMK AO2 T01500144
KHAF - Half Moon Bay, California, USA
Distance from station: VNV 50km
Uppdaterad: 06/08/2020 11:55
Mist, Genommulet
Mist, Genommulet
 Vind frn NV
Vind: NV 11 km/h
Temperatur: 14°C
Daggpunkt: 13°C
Luftfuktighet: 94%
Barometer: 1013.5 hPa
Summering: Mist
Clouds: Genommulet
Visibility: 10 km
Cloud details: Genommulet 244 m
2020/08/06 09:55 KHAF 060955Z AUTO 32006KT 6SM BR OVC008 14/13 A2993 RMK AO2
 
KHWD - Hayward, California, USA
Distance from station: N 44km
Uppdaterad: 06/08/2020 11:54
Genommulet
Genommulet
 Vind frn VSV
Vind: VSV 15 km/h
Temperatur: 17°C
Daggpunkt: 12°C
Luftfuktighet: 73%
Barometer: 1012.5 hPa
Clouds: Genommulet
Visibility: 16 km
Cloud details: Genommulet 488 m
2020/08/06 09:54 KHWD 060954Z AUTO 24008KT 10SM OVC016 17/12 A2990 RMK AO2 SLP134 T01670122
KLVK - Livermore, California, USA
Distance from station: NNO 51km
Uppdaterad: 06/08/2020 11:53
Genommulet
Genommulet
 Vind frn SV
Vind: SV 22 km/h
Temperatur: 16°C
Daggpunkt: 13°C
Luftfuktighet: 83%
Barometer: 1012.5 hPa
Clouds: Genommulet
Visibility: 16 km
Cloud details: Genommulet 396 m
2020/08/06 09:53 KLVK 060953Z AUTO 23012KT 10SM OVC013 16/13 A2990 RMK AO2 SLP120 T01560128